createdAt,value
2019-05-01T00:01:02.529Z,0.75
2019-05-01T00:03:43.394Z,1.32
2019-05-01T00:06:12.253Z,1.17
2019-05-01T00:08:39.901Z,0.98
2019-05-01T00:11:07.126Z,0.68
2019-05-01T00:13:34.341Z,0.70
2019-05-01T00:16:01.623Z,1.65
2019-05-01T00:18:28.968Z,1.87
2019-05-01T00:20:56.191Z,1.52
2019-05-01T00:23:24.419Z,1.10
2019-05-01T00:25:51.645Z,1.00
2019-05-01T00:28:19.377Z,0.85
2019-05-01T00:30:46.600Z,1.05
2019-05-01T00:33:14.161Z,2.52
2019-05-01T00:35:41.383Z,1.92
2019-05-01T00:38:08.615Z,4.30
2019-05-01T00:40:36.220Z,3.52
2019-05-01T00:43:03.454Z,2.83
2019-05-01T00:45:30.720Z,3.72
2019-05-01T00:47:58.277Z,4.12
2019-05-01T00:50:25.472Z,2.12
2019-05-01T00:52:52.744Z,2.45
2019-05-01T00:55:40.052Z,4.05
2019-05-01T00:58:25.541Z,3.15
2019-05-01T01:01:11.475Z,1.72
2019-05-01T01:03:39.924Z,1.20
2019-05-01T01:06:07.564Z,2.87
2019-05-01T01:08:34.853Z,1.00
2019-05-01T01:11:02.053Z,3.08
2019-05-01T01:13:29.348Z,1.40
2019-05-01T01:15:56.549Z,1.77
2019-05-01T01:18:23.777Z,1.27
2019-05-01T01:20:51.053Z,3.17
2019-05-01T01:23:18.290Z,4.08
2019-05-01T01:25:45.494Z,2.20
2019-05-01T01:28:12.809Z,2.22
2019-05-01T01:30:40.007Z,1.60
2019-05-01T01:33:07.201Z,1.57
2019-05-01T01:35:34.442Z,2.20
2019-05-01T01:38:01.785Z,2.92
2019-05-01T01:40:29.004Z,1.45
2019-05-01T01:42:57.940Z,1.07
2019-05-01T01:45:26.781Z,1.80
2019-05-01T01:48:10.306Z,0.98
2019-05-01T01:50:38.235Z,1.22
2019-05-01T01:53:05.527Z,1.40
2019-05-01T01:55:32.728Z,3.70
2019-05-01T01:57:59.953Z,6.60
2019-05-01T02:00:28.788Z,3.72
2019-05-01T02:02:57.659Z,2.22
2019-05-01T02:05:26.496Z,3.60
2019-05-01T02:07:53.725Z,3.15
2019-05-01T02:10:21.020Z,3.45
2019-05-01T02:12:48.281Z,2.00
2019-05-01T02:15:15.504Z,1.60
2019-05-01T02:17:42.772Z,3.50
2019-05-01T02:20:10.177Z,1.92
2019-05-01T02:22:37.384Z,4.28
2019-05-01T02:25:05.829Z,1.85
2019-05-01T02:27:37.465Z,3.50
2019-05-01T02:30:09.219Z,2.85
2019-05-01T02:32:36.489Z,11.38
2019-05-01T02:35:04.556Z,6.10
2019-05-01T02:37:31.895Z,4.67
2019-05-01T02:39:59.174Z,3.70
2019-05-01T02:42:27.498Z,5.65
2019-05-01T02:44:54.778Z,13.25
2019-05-01T02:47:24.135Z,10.93
2019-05-01T02:49:52.312Z,7.85
2019-05-01T02:52:20.257Z,4.83
2019-05-01T02:54:48.239Z,3.83
2019-05-01T02:57:17.552Z,3.05
2019-05-01T02:59:45.676Z,1.98
2019-05-01T03:02:12.948Z,2.40
2019-05-01T03:04:40.776Z,4.47
2019-05-01T03:07:08.049Z,3.55
2019-05-01T03:09:35.241Z,2.92
2019-05-01T03:12:02.849Z,2.20
2019-05-01T03:14:30.593Z,1.45
2019-05-01T03:16:58.702Z,2.62
2019-05-01T03:19:30.687Z,2.08
2019-05-01T03:22:02.629Z,4.00
2019-05-01T03:24:30.173Z,1.95
2019-05-01T03:26:57.516Z,4.33
2019-05-01T03:29:24.798Z,10.45
2019-05-01T03:32:14.279Z,13.88
2019-05-01T03:34:21.133Z,9.83
2019-05-01T03:36:48.414Z,10.90
2019-05-01T03:39:15.988Z,7.97
2019-05-01T03:41:43.564Z,6.45
2019-05-01T03:44:10.832Z,4.22
2019-05-01T03:46:38.029Z,3.85
2019-05-01T03:49:05.760Z,3.25
2019-05-01T03:51:33.025Z,3.67
2019-05-01T03:54:00.468Z,4.35
2019-05-01T03:56:28.160Z,8.45
2019-05-01T03:58:55.372Z,16.17
2019-05-01T04:01:26.768Z,18.30
2019-05-01T04:04:07.878Z,8.43
2019-05-01T04:06:35.929Z,8.33
2019-05-01T04:09:04.645Z,8.10
2019-05-01T04:11:31.877Z,5.80
2019-05-01T04:13:59.128Z,7.30
2019-05-01T04:16:26.477Z,8.83
2019-05-01T04:18:53.872Z,7.37
2019-05-01T04:21:22.709Z,7.22
2019-05-01T04:23:50.002Z,6.17
2019-05-01T04:26:17.300Z,7.40
2019-05-01T04:28:54.997Z,5.92
2019-05-01T04:31:24.209Z,4.83
2019-05-01T04:33:53.117Z,4.85
2019-05-01T04:36:31.236Z,3.33
2019-05-01T04:38:58.518Z,2.62
2019-05-01T04:41:25.821Z,1.92
2019-05-01T04:43:53.217Z,1.87
2019-05-01T04:46:20.483Z,1.67
2019-05-01T04:48:47.701Z,3.87
2019-05-01T04:51:15.056Z,2.10
2019-05-01T04:53:42.253Z,1.92
2019-05-01T04:56:09.532Z,5.45
2019-05-01T04:58:37.169Z,3.52
2019-05-01T05:01:04.367Z,3.05
2019-05-01T05:03:32.071Z,2.05
2019-05-01T05:06:00.006Z,7.05
2019-05-01T05:08:27.205Z,7.50
2019-05-01T05:10:56.041Z,5.28
2019-05-01T05:13:31.176Z,5.83
2019-05-01T05:16:18.560Z,5.47
2019-05-01T05:18:46.098Z,5.35
2019-05-01T05:21:13.377Z,5.15
2019-05-01T05:23:40.914Z,3.80
2019-05-01T05:26:08.420Z,4.80
2019-05-01T05:28:35.886Z,3.80
2019-05-01T05:31:03.415Z,6.30
2019-05-01T05:33:30.788Z,7.85
2019-05-01T05:35:57.988Z,4.90
2019-05-01T05:38:43.170Z,4.08
2019-05-01T05:41:10.370Z,5.58
2019-05-01T05:43:37.575Z,9.10
2019-05-01T05:46:04.892Z,4.47
2019-05-01T05:48:32.365Z,6.97
2019-05-01T05:51:17.773Z,4.62
2019-05-01T05:53:53.116Z,3.30
2019-05-01T05:56:28.299Z,3.37
2019-05-01T05:58:57.145Z,3.30
2019-05-01T06:01:26.057Z,4.35
2019-05-01T06:03:54.961Z,4.95
2019-05-01T06:06:24.274Z,4.40
2019-05-01T06:08:52.512Z,3.05
2019-05-01T06:11:21.419Z,2.62
2019-05-01T06:14:06.798Z,6.90
2019-05-01T06:16:42.024Z,10.23
2019-05-01T06:19:26.055Z,12.25
2019-05-01T06:22:11.696Z,7.33
2019-05-01T06:24:42.410Z,10.25
2019-05-01T06:27:13.880Z,7.03
2019-05-01T06:29:38.725Z,8.70
2019-05-01T06:32:06.380Z,7.15
2019-05-01T06:34:33.656Z,6.80
2019-05-01T06:37:00.893Z,6.85
2019-05-01T06:39:28.121Z,5.08
2019-05-01T06:41:55.321Z,7.28
2019-05-01T06:44:26.912Z,5.08
2019-05-01T06:46:58.370Z,6.85
2019-05-01T06:49:29.413Z,5.58
2019-05-01T06:51:57.343Z,6.40
2019-05-01T06:54:24.573Z,4.70
2019-05-01T06:56:51.847Z,4.30
2019-05-01T06:59:19.512Z,3.33
2019-05-01T07:01:47.179Z,5.58
2019-05-01T07:04:14.410Z,7.22
2019-05-01T07:06:41.613Z,8.65
2019-05-01T07:09:11.819Z,5.78
2019-05-01T07:11:38.186Z,7.08
2019-05-01T07:14:05.884Z,5.67
2019-05-01T07:16:37.888Z,6.83
2019-05-01T07:19:06.022Z,5.05
2019-05-01T07:21:32.808Z,5.55
2019-05-01T07:24:00.233Z,4.97
2019-05-01T07:26:27.455Z,4.42
2019-05-01T07:28:56.293Z,4.50
2019-05-01T07:31:25.977Z,4.08
2019-05-01T07:33:52.600Z,3.85
2019-05-01T07:36:19.855Z,5.50
2019-05-01T07:38:47.133Z,5.37
2019-05-01T07:41:14.764Z,4.67
2019-05-01T07:43:59.631Z,3.33
2019-05-01T07:46:35.864Z,3.90
2019-05-01T07:49:03.145Z,4.22
2019-05-01T07:51:30.480Z,3.72
2019-05-01T07:53:59.162Z,3.47
2019-05-01T07:56:28.341Z,4.10
2019-05-01T07:58:57.062Z,4.58
2019-05-01T08:01:26.357Z,3.62
2019-05-01T08:03:53.641Z,4.90
2019-05-01T08:06:21.849Z,4.35
2019-05-01T08:08:49.947Z,4.50
2019-05-01T08:11:17.337Z,6.40
2019-05-01T08:13:44.599Z,6.42
2019-05-01T08:16:11.829Z,5.95
2019-05-01T08:18:52.687Z,4.92
2019-05-01T08:21:30.437Z,4.30
2019-05-01T08:23:57.632Z,8.50
2019-05-01T08:26:24.861Z,8.03
2019-05-01T08:29:06.843Z,6.50
2019-05-01T08:31:36.688Z,9.78
2019-05-01T08:34:11.292Z,8.60
2019-05-01T08:36:38.496Z,7.60
2019-05-01T08:39:09.174Z,8.70
2019-05-01T08:41:37.638Z,26.25
2019-05-01T08:44:06.694Z,23.92
2019-05-01T08:46:50.968Z,27.60
2019-05-01T08:49:21.477Z,30.00
2019-05-01T08:51:48.690Z,24.87
2019-05-01T08:54:15.924Z,32.15
2019-05-01T08:56:43.744Z,20.02
2019-05-01T08:59:11.302Z,17.80
2019-05-01T09:01:38.536Z,14.20
2019-05-01T09:04:12.798Z,10.53
2019-05-01T09:06:39.221Z,17.87
2019-05-01T09:09:08.365Z,14.55
2019-05-01T09:11:36.322Z,10.58
2019-05-01T09:14:04.056Z,10.93
2019-05-01T09:16:31.638Z,9.68
2019-05-01T09:18:59.114Z,8.83
2019-05-01T09:21:26.376Z,7.35
2019-05-01T09:23:53.833Z,8.03
2019-05-01T09:26:28.748Z,9.60
2019-05-01T09:29:10.918Z,10.70
2019-05-01T09:31:36.156Z,10.25
2019-05-01T09:34:03.757Z,8.00
2019-05-01T09:36:30.960Z,7.08
2019-05-01T09:38:58.261Z,4.62
2019-05-01T09:41:37.673Z,3.22
2019-05-01T09:43:54.485Z,4.70
2019-05-01T09:46:21.846Z,4.15
2019-05-01T09:48:49.137Z,3.42
2019-05-01T09:51:34.442Z,3.25
2019-05-01T09:54:09.782Z,8.68
2019-05-01T09:56:38.577Z,18.60
2019-05-01T09:59:05.898Z,19.35
2019-05-01T10:01:33.209Z,15.38
2019-05-01T10:04:01.553Z,13.60
2019-05-01T10:06:28.772Z,9.73
2019-05-01T10:08:55.974Z,7.80
2019-05-01T10:11:23.206Z,9.95
2019-05-01T10:13:53.659Z,8.58
2019-05-01T10:16:19.352Z,5.80
2019-05-01T10:18:46.554Z,4.12
2019-05-01T10:21:13.857Z,6.28
2019-05-01T10:23:41.400Z,9.28
2019-05-01T10:26:10.277Z,6.95
2019-05-01T10:28:39.121Z,6.45
2019-05-01T10:31:24.562Z,10.78
2019-05-01T10:34:07.666Z,7.35
2019-05-01T10:36:39.028Z,16.07
2019-05-01T10:39:07.208Z,11.43
2019-05-01T10:41:34.513Z,7.50
2019-05-01T10:44:02.047Z,7.20
2019-05-01T10:46:29.345Z,5.45
2019-05-01T10:48:57.508Z,6.58
2019-05-01T10:51:24.865Z,5.97
2019-05-01T10:53:52.489Z,10.68
2019-05-01T10:56:19.777Z,7.97
2019-05-01T10:58:46.997Z,10.18
2019-05-01T11:01:34.004Z,6.60
2019-05-01T11:04:01.660Z,5.67
2019-05-01T11:06:28.890Z,5.50
2019-05-01T11:08:56.165Z,6.92
2019-05-01T11:11:23.396Z,7.47
2019-05-01T11:13:50.681Z,7.15
2019-05-01T11:16:17.992Z,6.75
2019-05-01T11:18:45.188Z,7.20
2019-05-01T11:21:12.725Z,6.25
2019-05-01T11:23:39.943Z,7.87
2019-05-01T11:26:07.155Z,6.17
2019-05-01T11:28:34.563Z,4.22
2019-05-01T11:31:01.916Z,10.05
2019-05-01T11:33:40.249Z,8.68
2019-05-01T11:36:12.016Z,7.45
2019-05-01T11:38:43.923Z,6.58
2019-05-01T11:41:18.552Z,10.33
2019-05-01T11:43:45.773Z,19.55
2019-05-01T11:46:13.558Z,20.68
2019-05-01T11:48:40.793Z,15.05
2019-05-01T11:51:08.067Z,9.05
2019-05-01T11:53:35.465Z,6.33
2019-05-01T11:56:02.744Z,7.22
2019-05-01T11:58:30.017Z,5.58
2019-05-01T12:00:58.937Z,4.00
2019-05-01T12:03:26.512Z,3.20
2019-05-01T12:05:53.860Z,3.40
2019-05-01T12:08:21.129Z,4.92
2019-05-01T12:10:48.428Z,4.95
2019-05-01T12:13:15.750Z,3.67
2019-05-01T12:15:44.652Z,12.55
2019-05-01T12:18:12.168Z,9.48
2019-05-01T12:20:39.929Z,6.25
2019-05-01T12:23:07.493Z,6.50
2019-05-01T12:25:34.797Z,6.28
2019-05-01T12:28:02.068Z,5.65
2019-05-01T12:30:29.374Z,3.42
2019-05-01T12:32:56.648Z,5.70
2019-05-01T12:35:23.965Z,10.78
2019-05-01T12:37:55.281Z,6.72
2019-05-01T12:40:21.732Z,4.20
2019-05-01T12:42:49.455Z,2.87
2019-05-01T12:45:16.800Z,3.40
2019-05-01T12:47:45.716Z,12.55
2019-05-01T12:50:15.159Z,7.33
2019-05-01T12:52:46.873Z,5.78
2019-05-01T12:55:25.305Z,5.62
2019-05-01T12:57:52.504Z,6.67
2019-05-01T13:00:21.333Z,7.00
2019-05-01T13:02:48.641Z,5.33
2019-05-01T13:05:15.846Z,5.70
2019-05-01T13:07:43.045Z,4.22
2019-05-01T13:10:10.282Z,4.05
2019-05-01T13:12:37.481Z,5.33
2019-05-01T13:15:06.516Z,5.12
2019-05-01T13:17:34.047Z,4.12
2019-05-01T13:20:01.345Z,3.60
2019-05-01T13:22:28.633Z,4.20
2019-05-01T13:24:55.908Z,3.72
2019-05-01T13:27:27.692Z,2.30
2019-05-01T13:29:56.990Z,2.02
2019-05-01T13:32:29.132Z,4.67
2019-05-01T13:34:56.425Z,4.35
2019-05-01T13:37:23.704Z,3.60
2019-05-01T13:39:51.005Z,3.52
2019-05-01T13:42:18.212Z,3.37
2019-05-01T13:44:45.512Z,2.27
2019-05-01T13:47:13.048Z,3.58
2019-05-01T13:49:40.345Z,3.92
2019-05-01T13:52:07.544Z,3.40
2019-05-01T13:54:34.768Z,1.98
2019-05-01T13:57:01.964Z,2.33
2019-05-01T13:59:29.196Z,2.80
2019-05-01T14:01:56.401Z,3.25
2019-05-01T14:04:23.711Z,3.27
2019-05-01T14:06:50.919Z,2.52
2019-05-01T14:09:19.860Z,3.65
2019-05-01T14:11:47.137Z,5.67
2019-05-01T14:14:14.366Z,4.83
2019-05-01T14:16:41.570Z,3.33
2019-05-01T14:19:08.872Z,2.72
2019-05-01T14:21:40.685Z,2.10
2019-05-01T14:24:12.768Z,3.27
2019-05-01T14:26:40.037Z,2.73
2019-05-01T14:29:07.245Z,2.72
2019-05-01T14:31:34.555Z,2.55
2019-05-01T14:34:01.829Z,1.55
2019-05-01T14:36:29.137Z,2.33
2019-05-01T14:38:56.428Z,2.02
2019-05-01T14:41:23.661Z,1.77
2019-05-01T14:43:50.932Z,3.27
2019-05-01T14:46:18.210Z,1.90
2019-05-01T14:48:45.742Z,1.40
2019-05-01T14:51:13.033Z,7.15
2019-05-01T14:53:40.306Z,4.70
2019-05-01T14:56:07.530Z,3.27
2019-05-01T14:58:34.907Z,3.00
2019-05-01T15:01:02.576Z,2.47
2019-05-01T15:03:29.780Z,1.85
2019-05-01T15:05:57.085Z,2.85
2019-05-01T15:08:24.357Z,1.98
2019-05-01T15:10:51.872Z,1.47
2019-05-01T15:13:38.985Z,1.52
2019-05-01T15:16:07.941Z,1.30
2019-05-01T15:18:36.862Z,1.50
2019-05-01T15:21:04.120Z,2.25
2019-05-01T15:23:31.777Z,2.10
2019-05-01T15:25:59.338Z,1.10
2019-05-01T15:28:26.613Z,1.00
2019-05-01T15:30:53.941Z,1.30
2019-05-01T15:33:21.212Z,3.15
2019-05-01T15:35:48.768Z,2.35
2019-05-01T15:38:16.009Z,1.98
2019-05-01T15:41:01.600Z,2.80
2019-05-01T15:43:33.436Z,3.08
2019-05-01T15:46:00.645Z,4.83
2019-05-01T15:48:28.245Z,1.77
2019-05-01T15:50:55.455Z,1.92
2019-05-01T15:53:23.052Z,1.75
2019-05-01T15:55:50.613Z,1.82
2019-05-01T15:58:17.845Z,3.00
2019-05-01T16:00:45.425Z,2.87
2019-05-01T16:03:12.661Z,2.58
2019-05-01T16:05:39.870Z,1.50
2019-05-01T16:08:09.881Z,1.65
2019-05-01T16:10:40.726Z,2.00
2019-05-01T16:13:07.949Z,1.50
2019-05-01T16:15:35.646Z,3.05
2019-05-01T16:18:03.420Z,6.53
2019-05-01T16:20:30.692Z,5.17
2019-05-01T16:22:58.403Z,6.30
2019-05-01T16:25:25.680Z,8.80
2019-05-01T16:27:52.949Z,7.28
2019-05-01T16:30:22.026Z,8.30
2019-05-01T16:32:49.292Z,9.83
2019-05-01T16:35:16.496Z,9.03
2019-05-01T16:37:43.828Z,9.03
2019-05-01T16:40:15.981Z,8.88
2019-05-01T16:42:43.184Z,9.90
2019-05-01T16:45:10.885Z,12.50
2019-05-01T16:47:39.240Z,14.65
2019-05-01T16:50:06.900Z,10.50
2019-05-01T16:52:35.021Z,12.07
2019-05-01T16:55:02.648Z,12.75
2019-05-01T16:57:29.858Z,9.25
2019-05-01T16:59:57.461Z,9.15
2019-05-01T17:02:29.112Z,6.20
2019-05-01T17:04:57.981Z,11.50
2019-05-01T17:07:39.497Z,13.08
2019-05-01T17:10:11.837Z,10.28
2019-05-01T17:12:43.144Z,7.60
2019-05-01T17:15:10.793Z,10.55
2019-05-01T17:17:38.043Z,11.00
2019-05-01T17:20:06.249Z,13.88
2019-05-01T17:22:33.520Z,11.43
2019-05-01T17:25:00.748Z,11.28
2019-05-01T17:27:28.029Z,9.65
2019-05-01T17:29:55.616Z,9.60
2019-05-01T17:32:23.285Z,11.57
2019-05-01T17:34:50.584Z,13.25
2019-05-01T17:37:18.129Z,9.43
2019-05-01T17:39:45.359Z,12.35
2019-05-01T17:42:12.570Z,10.30
2019-05-01T17:44:39.876Z,24.27
2019-05-01T17:47:07.296Z,18.90
2019-05-01T17:49:34.530Z,19.15
2019-05-01T17:52:01.813Z,22.07
2019-05-01T17:54:29.095Z,21.52
2019-05-01T17:56:56.404Z,19.23
2019-05-01T17:59:23.635Z,24.27
2019-05-01T18:02:11.526Z,25.92
2019-05-01T18:04:43.849Z,19.82
2019-05-01T18:07:11.221Z,26.87
2019-05-01T18:09:38.513Z,23.52
2019-05-01T18:12:05.816Z,27.45
2019-05-01T18:14:33.024Z,23.38
2019-05-01T18:17:00.260Z,21.73
2019-05-01T18:19:27.484Z,22.85
2019-05-01T18:21:56.355Z,24.35
2019-05-01T18:24:28.456Z,27.37
2019-05-01T18:27:00.136Z,29.93
2019-05-01T18:29:28.985Z,25.43
2019-05-01T18:31:56.652Z,30.20
2019-05-01T18:34:23.928Z,21.93
2019-05-01T18:36:59.642Z,27.98
2019-05-01T18:39:29.295Z,29.02
2019-05-01T18:42:01.745Z,29.00
2019-05-01T18:44:28.954Z,25.85
2019-05-01T18:46:56.548Z,22.48
2019-05-01T18:49:23.748Z,26.45
2019-05-01T18:51:50.985Z,19.77
2019-05-01T18:54:18.188Z,16.17
2019-05-01T18:56:45.520Z,23.75
2019-05-01T18:59:12.827Z,21.20
2019-05-01T19:01:43.825Z,28.92
2019-05-01T19:04:09.005Z,20.97
2019-05-01T19:06:41.309Z,19.10
2019-05-01T19:09:14.868Z,19.50
2019-05-01T19:11:36.123Z,19.15
2019-05-01T19:14:03.743Z,17.20
2019-05-01T19:16:31.352Z,17.23
2019-05-01T19:18:58.912Z,20.05
2019-05-01T19:21:28.708Z,22.05
2019-05-01T19:24:00.668Z,22.32
2019-05-01T19:26:25.492Z,22.70
2019-05-01T19:28:52.825Z,15.90
2019-05-01T19:31:21.414Z,16.82
2019-05-01T19:33:49.197Z,17.32
2019-05-01T19:36:16.465Z,18.12
2019-05-01T19:38:43.704Z,24.67
2019-05-01T19:41:14.097Z,26.40
2019-05-01T19:43:40.567Z,21.60
2019-05-01T19:46:09.003Z,18.20
2019-05-01T19:48:36.242Z,18.73
2019-05-01T19:51:03.456Z,23.10
2019-05-01T19:53:31.231Z,21.70
2019-05-01T19:55:58.581Z,25.77
2019-05-01T19:58:26.211Z,17.27
2019-05-01T20:00:54.487Z,18.60
2019-05-01T20:03:21.864Z,18.00
2019-05-01T20:05:49.212Z,23.27
2019-05-01T20:08:16.906Z,24.63
2019-05-01T20:10:44.260Z,24.90
2019-05-01T20:13:12.290Z,21.23
2019-05-01T20:15:40.760Z,32.20
2019-05-01T20:18:08.084Z,23.52
2019-05-01T20:20:35.676Z,25.60
2019-05-01T20:23:03.237Z,23.77
2019-05-01T20:25:30.472Z,26.42
2019-05-01T20:27:57.677Z,24.05
2019-05-01T20:30:25.233Z,26.65
2019-05-01T20:32:52.815Z,25.52
2019-05-01T20:35:23.804Z,23.97
2019-05-01T20:37:49.049Z,31.62
2019-05-01T20:40:16.712Z,29.05
2019-05-01T20:42:43.992Z,28.10
2019-05-01T20:45:23.537Z,32.55
2019-05-01T20:47:45.892Z,28.10
2019-05-01T20:50:09.103Z,31.10
2019-05-01T20:52:36.309Z,40.85
2019-05-01T20:55:04.507Z,28.98
2019-05-01T20:57:33.361Z,37.90
2019-05-01T21:00:00.597Z,37.08
2019-05-01T21:02:27.804Z,44.75
2019-05-01T21:04:56.671Z,37.05
2019-05-01T21:07:25.520Z,31.82
2019-05-01T21:09:57.699Z,39.45
2019-05-01T21:12:23.328Z,36.70
2019-05-01T21:14:51.063Z,35.95
2019-05-01T21:17:18.522Z,40.40
2019-05-01T21:19:45.791Z,38.88
2019-05-01T21:22:14.255Z,33.75
2019-05-01T21:24:41.684Z,39.63
2019-05-01T21:27:08.912Z,40.17
2019-05-01T21:29:36.124Z,36.20
2019-05-01T21:32:03.639Z,35.25
2019-05-01T21:34:31.007Z,34.98
2019-05-01T21:36:58.538Z,38.28
2019-05-01T21:39:27.049Z,36.05
2019-05-01T21:41:54.684Z,26.93
2019-05-01T21:44:23.448Z,29.37
2019-05-01T21:46:50.717Z,33.78
2019-05-01T21:49:18.129Z,35.30
2019-05-01T21:51:46.284Z,24.32
2019-05-01T21:54:15.929Z,32.50
2019-05-01T21:56:42.805Z,29.20
2019-05-01T21:59:10.196Z,31.75
2019-05-01T22:01:37.400Z,38.00
2019-05-01T22:04:05.013Z,37.98
2019-05-01T22:06:32.216Z,25.00
2019-05-01T22:08:59.428Z,27.50
2019-05-01T22:11:26.673Z,30.10
2019-05-01T22:13:54.988Z,36.23
2019-05-01T22:16:27.595Z,37.23
2019-05-01T22:19:11.453Z,41.80
2019-05-01T22:21:58.631Z,42.45
2019-05-01T22:24:27.508Z,33.78
2019-05-01T22:26:56.712Z,45.50
2019-05-01T22:29:32.175Z,35.03
2019-05-01T22:32:16.805Z,43.58
2019-05-01T22:34:54.766Z,38.98
2019-05-01T22:37:22.004Z,32.42
2019-05-01T22:39:56.853Z,39.63
2019-05-01T22:42:24.052Z,28.05
2019-05-01T22:44:51.448Z,33.18
2019-05-01T22:47:18.661Z,24.87
2019-05-01T22:49:46.208Z,27.30
2019-05-01T22:52:13.616Z,20.48
2019-05-01T22:54:44.833Z,21.80
2019-05-01T22:57:10.928Z,22.50
2019-05-01T22:59:38.588Z,22.62
2019-05-01T23:02:07.432Z,23.52
2019-05-01T23:04:34.633Z,18.12
2019-05-01T23:07:01.894Z,19.67
2019-05-01T23:09:30.363Z,17.73
2019-05-01T23:11:57.741Z,16.57
2019-05-01T23:14:26.558Z,12.50
2019-05-01T23:16:58.556Z,15.68
2019-05-01T23:19:27.729Z,12.98
2019-05-01T23:21:53.352Z,13.90
2019-05-01T23:24:20.548Z,14.03
2019-05-01T23:26:51.481Z,16.00
2019-05-01T23:29:16.924Z,17.57
2019-05-01T23:31:44.124Z,16.48
2019-05-01T23:34:11.324Z,12.10
2019-05-01T23:36:38.557Z,10.15
2019-05-01T23:39:05.757Z,14.25
2019-05-01T23:41:45.317Z,18.52
2019-05-01T23:44:03.455Z,12.43
2019-05-01T23:46:30.904Z,17.48
2019-05-01T23:48:58.104Z,14.53
2019-05-01T23:51:28.575Z,14.95
2019-05-01T23:53:54.260Z,13.62
2019-05-01T23:56:21.463Z,19.17
2019-05-01T23:58:48.705Z,25.72
